Time;durP1;ratioP1;P1;durP2;ratioP2;P2;SDS_P1;SDS_P2;PMS_P1;PMS_P2;Temp;Humidity;BMP_temperature;BMP_pressure;BME280_temperature;BME280_humidity;BME280_pressure;Samples;Min_cycle;Max_cycle;Signal;HPM_P1;HPM_P2
2022/08/02 00:00:46;;;;;;;1.90;1.80;;;24.50;48.60;;;;;;5065902;28;20631;-71
2022/08/02 00:03:11;;;;;;;1.80;1.70;;;24.50;48.60;;;;;;5066185;28;20969;-63
2022/08/02 00:05:37;;;;;;;1.70;1.60;;;24.50;48.60;;;;;;5070818;28;20213;-67
2022/08/02 00:08:03;;;;;;;1.87;1.77;;;24.50;48.70;;;;;;5064077;28;20181;-78
2022/08/02 00:10:29;;;;;;;1.70;1.60;;;24.50;48.60;;;;;;5064909;28;20425;-61
2022/08/02 00:12:54;;;;;;;2.13;1.93;;;24.50;48.60;;;;;;5061336;28;20176;-63
2022/08/02 00:15:20;;;;;;;1.90;1.80;;;24.50;48.60;;;;;;5063018;28;20245;-75
2022/08/02 00:17:46;;;;;;;1.80;1.70;;;24.50;48.60;;;;;;5063552;28;20640;-76
2022/08/02 00:20:11;;;;;;;1.80;1.70;;;24.50;48.60;;;;;;5066554;28;20195;-59
2022/08/02 00:22:37;;;;;;;1.80;1.70;;;24.50;48.70;;;;;;5063214;28;20253;-79
2022/08/02 00:25:03;;;;;;;2.10;1.50;;;24.50;48.60;;;;;;5063925;28;20181;-59
2022/08/02 00:27:29;;;;;;;1.57;1.47;;;24.50;48.60;;;;;;5063477;28;20600;-74
2022/08/02 00:29:55;;;;;;;1.70;1.60;;;24.50;48.60;;;;;;5064089;28;20432;-60
2022/08/02 00:32:21;;;;;;;1.77;1.67;;;24.50;48.60;;;;;;5066817;28;20937;-63
2022/08/02 00:34:48;;;;;;;1.80;1.70;;;24.50;48.60;;;;;;5065140;28;20201;-66
2022/08/02 00:37:13;;;;;;;1.90;1.80;;;24.50;48.60;;;;;;5074294;28;20429;-75
2022/08/02 00:39:41;;;;;;;1.80;1.70;;;24.50;48.60;;;;;;5061554;28;20445;-62
2022/08/02 00:42:07;;;;;;;1.90;1.80;;;24.50;48.60;;;;;;5059882;28;20177;-79
2022/08/02 00:44:32;;;;;;;1.90;1.80;;;24.50;48.60;;;;;;5064353;28;20498;-60
2022/08/02 00:46:59;;;;;;;1.90;1.80;;;24.50;48.60;;;;;;5062476;28;20263;-61
2022/08/02 00:49:24;;;;;;;1.90;1.80;;;24.50;48.60;;;;;;5071449;28;20188;-66
2022/08/02 00:51:50;;;;;;;1.80;1.70;;;24.50;48.60;;;;;;5075723;28;20433;-64
2022/08/02 00:54:16;;;;;;;1.80;1.70;;;24.50;48.60;;;;;;5065115;28;20228;-62
2022/08/02 00:56:41;;;;;;;2.13;2.03;;;24.50;48.60;;;;;;5063612;28;20224;-61
2022/08/02 00:59:07;;;;;;;1.53;1.43;;;24.50;48.60;;;;;;5062737;28;20252;-59
2022/08/02 01:01:38;;;;;;;1.60;1.50;;;24.50;48.60;;;;;;5063809;28;20187;-63
2022/08/02 01:04:08;;;;;;;1.60;1.50;;;24.50;48.60;;;;;;5065261;28;21045;-59
2022/08/02 01:06:35;;;;;;;1.87;1.77;;;24.50;48.60;;;;;;5071002;28;20841;-69
2022/08/02 01:09:02;;;;;;;2.03;1.93;;;24.50;48.60;;;;;;5074885;28;20447;-70
2022/08/02 01:11:29;;;;;;;1.70;1.60;;;24.50;48.60;;;;;;5063240;28;20840;-78
2022/08/02 01:14:06;;;;;;;1.80;1.70;;;24.50;48.60;;;;;;5063826;28;20455;-60
2022/08/02 01:16:36;;;;;;;1.87;1.77;;;24.50;48.60;;;;;;5060310;28;20475;-77
2022/08/02 01:19:21;;;;;;;1.60;1.50;;;24.50;48.60;;;;;;5060760;28;20928;-79
2022/08/02 01:21:58;;;;;;;1.50;1.40;;;24.50;48.60;;;;;;5065983;28;20480;-60
2022/08/02 01:24:42;;;;;;;1.90;1.80;;;24.50;48.60;;;;;;5062226;28;20788;-68
2022/08/02 01:27:32;;;;;;;1.90;1.80;;;24.50;48.60;;;;;;5061847;28;23222;-61
2022/08/02 01:30:00;;;;;;;1.70;1.60;;;24.50;48.60;;;;;;5061588;28;20786;-65
2022/08/02 01:32:31;;;;;;;1.70;1.60;;;24.50;48.60;;;;;;5065934;28;20430;-70
2022/08/02 01:35:07;;;;;;;1.67;1.57;;;24.50;48.60;;;;;;5061271;28;20422;-70
2022/08/02 01:37:50;;;;;;;1.70;1.60;;;24.50;49.40;;;;;;5064271;28;20444;-68
2022/08/02 01:40:22;;;;;;;1.70;1.60;;;24.50;48.60;;;;;;5061608;28;20432;-60
2022/08/02 01:42:52;;;;;;;1.73;1.63;;;24.50;48.60;;;;;;5059134;28;20440;-60
2022/08/02 01:45:19;;;;;;;1.90;1.80;;;24.50;48.60;;;;;;5063433;28;20489;-62
2022/08/02 01:47:46;;;;;;;1.70;1.60;;;24.50;48.60;;;;;;5059469;28;20422;-72
2022/08/02 01:50:15;;;;;;;1.80;1.70;;;24.50;48.60;;;;;;5056928;28;20436;-60
2022/08/02 01:52:50;;;;;;;1.60;1.50;;;24.50;48.60;;;;;;5060316;28;20680;-59
2022/08/02 01:55:21;;;;;;;1.60;1.50;;;24.50;48.60;;;;;;5068477;28;20530;-59
2022/08/02 01:57:51;;;;;;;1.90;1.80;;;24.50;48.60;;;;;;5058537;28;20432;-62
2022/08/02 02:00:18;;;;;;;2.80;2.40;;;24.50;48.60;;;;;;5057418;28;20418;-64
2022/08/02 02:02:47;;;;;;;1.73;1.63;;;24.50;48.60;;;;;;5059423;28;22818;-78
2022/08/02 02:05:17;;;;;;;1.70;1.60;;;24.50;48.60;;;;;;5062835;28;20996;-64
2022/08/02 02:07:44;;;;;;;1.70;1.60;;;24.50;48.60;;;;;;5065775;28;20440;-75
2022/08/02 02:10:14;;;;;;;1.90;1.80;;;24.50;49.40;;;;;;5068486;28;20826;-63
2022/08/02 02:12:42;;;;;;;1.80;1.70;;;24.50;48.60;;;;;;5061848;28;20443;-63
2022/08/02 02:15:11;;;;;;;1.80;1.70;;;24.50;48.60;;;;;;5060748;28;20575;-67
2022/08/02 02:17:41;;;;;;;1.87;1.77;;;24.50;48.60;;;;;;5067062;28;20513;-70
2022/08/02 02:20:18;;;;;;;1.60;1.50;;;24.50;48.60;;;;;;5062695;28;20433;-69
2022/08/02 02:22:44;;;;;;;1.70;1.60;;;24.50;48.60;;;;;;5066618;28;20465;-72
2022/08/02 02:25:11;;;;;;;1.70;1.60;;;24.50;48.60;;;;;;5066674;28;20927;-60
2022/08/02 02:27:42;;;;;;;1.80;1.70;;;24.50;48.60;;;;;;5068446;28;20426;-60
2022/08/02 02:30:08;;;;;;;1.90;1.80;;;24.50;48.60;;;;;;5062982;28;20421;-79
2022/08/02 02:32:35;;;;;;;2.00;1.90;;;24.50;48.60;;;;;;5062170;28;20467;-60
2022/08/02 02:35:02;;;;;;;2.20;2.10;;;24.50;48.70;;;;;;5063737;28;20994;-67
2022/08/02 02:37:31;;;;;;;1.53;1.43;;;24.50;48.60;;;;;;5062118;28;20468;-60
2022/08/02 02:39:57;;;;;;;1.67;1.57;;;24.50;48.70;;;;;;5066442;28;20504;-63
2022/08/02 02:42:27;;;;;;;1.80;1.70;;;24.50;48.60;;;;;;5062323;28;20421;-66
2022/08/02 02:44:54;;;;;;;1.80;1.70;;;24.50;48.60;;;;;;5063789;28;20450;-67
2022/08/02 02:47:21;;;;;;;1.50;1.40;;;24.50;48.60;;;;;;5063583;28;20429;-70
2022/08/02 02:49:49;;;;;;;1.80;1.70;;;24.50;48.60;;;;;;5063640;28;20435;-79
2022/08/02 02:52:16;;;;;;;1.83;1.73;;;24.50;48.60;;;;;;5061446;28;20470;-72
2022/08/02 02:54:44;;;;;;;1.80;1.70;;;24.50;48.60;;;;;;5066924;28;20517;-59
2022/08/02 02:57:10;;;;;;;2.00;1.90;;;24.50;48.60;;;;;;5067327;28;20518;-59
2022/08/02 02:59:38;;;;;;;1.60;1.50;;;24.50;48.60;;;;;;5059763;28;20519;-76
2022/08/02 03:02:05;;;;;;;1.90;1.80;;;24.50;48.60;;;;;;5061720;28;20791;-75
2022/08/02 03:04:31;;;;;;;1.80;1.70;;;24.50;48.60;;;;;;5061563;28;20915;-61
2022/08/02 03:06:58;;;;;;;1.97;1.87;;;24.50;48.60;;;;;;5067292;28;20436;-71
2022/08/02 03:09:24;;;;;;;1.70;1.60;;;24.50;48.60;;;;;;5066879;28;20421;-79
2022/08/02 03:11:53;;;;;;;1.73;1.63;;;24.50;48.60;;;;;;5062107;28;20433;-62
2022/08/02 03:14:18;;;;;;;2.00;1.90;;;24.50;48.60;;;;;;5061456;28;20747;-77
2022/08/02 03:16:50;;;;;;;1.87;1.77;;;24.50;48.60;;;;;;5062580;28;20473;-77
2022/08/02 03:19:17;;;;;;;1.67;1.57;;;24.50;48.60;;;;;;5063275;28;20215;-77
2022/08/02 03:21:45;;;;;;;1.90;1.80;;;24.50;48.60;;;;;;5065828;28;20484;-63
2022/08/02 03:24:11;;;;;;;2.00;1.90;;;24.50;49.50;;;;;;5070494;28;20447;-62
2022/08/02 03:26:37;;;;;;;1.77;1.67;;;24.50;48.60;;;;;;5067482;28;20425;-59
2022/08/02 03:29:03;;;;;;;2.20;2.00;;;24.50;48.60;;;;;;5062641;28;20916;-61
2022/08/02 03:31:29;;;;;;;1.63;1.53;;;24.50;48.60;;;;;;5062084;28;20249;-71
2022/08/02 03:33:57;;;;;;;1.70;1.60;;;24.50;48.60;;;;;;5062052;28;20927;-62
2022/08/02 03:36:26;;;;;;;1.70;1.60;;;24.50;48.60;;;;;;5067391;28;20238;-66
2022/08/02 03:38:52;;;;;;;1.73;1.63;;;24.50;48.60;;;;;;5063150;28;20429;-59
2022/08/02 03:41:19;;;;;;;1.87;1.77;;;24.50;48.70;;;;;;5070560;28;20514;-70
2022/08/02 03:43:45;;;;;;;2.07;1.97;;;24.50;48.60;;;;;;5064953;28;20498;-62
2022/08/02 03:46:14;;;;;;;1.80;1.70;;;24.50;48.60;;;;;;5061587;28;20430;-74
2022/08/02 03:48:40;;;;;;;1.80;1.70;;;24.50;48.60;;;;;;5064422;28;20969;-77
2022/08/02 03:51:07;;;;;;;1.70;1.60;;;24.50;48.70;;;;;;5061829;28;20433;-76
2022/08/02 03:53:34;;;;;;;1.93;1.83;;;24.50;49.40;;;;;;5064816;28;20925;-59
2022/08/02 03:55:59;;;;;;;1.60;1.50;;;24.50;48.60;;;;;;5071560;28;20493;-60
2022/08/02 03:58:25;;;;;;;1.70;1.60;;;24.50;48.60;;;;;;5061020;28;20508;-67
2022/08/02 04:00:54;;;;;;;2.00;1.90;;;24.50;48.60;;;;;;5062003;28;20270;-61
2022/08/02 04:03:20;;;;;;;2.07;1.97;;;24.50;48.70;;;;;;5060676;28;20173;-65
2022/08/02 04:05:46;;;;;;;1.60;1.50;;;24.50;48.60;;;;;;5071301;28;20959;-79
2022/08/02 04:08:11;;;;;;;1.90;1.80;;;24.50;48.60;;;;;;5062767;28;20186;-63
2022/08/02 04:13:25;;;;;;;1.90;1.80;;;24.50;48.60;;;;;;5064694;28;20192;-75
2022/08/02 04:15:54;;;;;;;2.00;1.90;;;24.50;48.60;;;;;;5058885;28;20465;-75
2022/08/02 04:18:27;;;;;;;1.60;1.50;;;24.60;48.70;;;;;;5057920;28;20445;-60
2022/08/02 04:20:55;;;;;;;1.90;1.80;;;24.60;48.70;;;;;;5059851;28;20447;-73
2022/08/02 04:23:23;;;;;;;1.80;1.70;;;24.60;48.60;;;;;;5063714;28;20433;-63
2022/08/02 04:25:49;;;;;;;2.00;1.90;;;24.60;48.60;;;;;;5061472;28;20530;-76
2022/08/02 04:28:15;;;;;;;3.43;1.60;;;24.70;48.50;;;;;;5066248;28;20448;-60
2022/08/02 04:30:41;;;;;;;1.80;1.70;;;24.70;48.50;;;;;;5061020;28;21241;-63
2022/08/02 04:33:07;;;;;;;1.53;1.43;;;24.70;48.40;;;;;;5058601;28;20934;-59
2022/08/02 04:35:34;;;;;;;1.70;1.60;;;24.70;48.50;;;;;;5060818;28;20462;-74
2022/08/02 04:38:00;;;;;;;1.67;1.57;;;24.70;48.40;;;;;;5060434;28;20443;-72
2022/08/02 04:40:26;;;;;;;1.80;1.70;;;24.70;48.50;;;;;;5067273;28;20429;-64
2022/08/02 04:42:52;;;;;;;1.63;1.53;;;24.70;48.60;;;;;;5069278;28;20935;-68
2022/08/02 04:45:18;;;;;;;1.57;1.47;;;24.70;48.60;;;;;;5060860;28;20271;-69
2022/08/02 04:47:44;;;;;;;1.80;1.70;;;24.70;48.60;;;;;;5062304;28;20188;-72
2022/08/02 04:50:10;;;;;;;1.60;1.50;;;24.70;48.60;;;;;;5065561;28;20432;-65
2022/08/02 04:52:35;;;;;;;1.90;1.80;;;24.70;48.50;;;;;;5066468;28;20196;-66
2022/08/02 04:55:01;;;;;;;1.67;1.57;;;24.70;48.50;;;;;;5059931;28;20192;-66
2022/08/02 05:00:12;;;;;;;1.97;1.87;;;24.70;48.30;;;;;;5058806;28;20185;-79
2022/08/02 05:02:37;;;;;;;1.93;1.83;;;24.70;48.40;;;;;;5063211;28;20464;-59
2022/08/02 05:05:03;;;;;;;2.33;2.23;;;24.70;48.30;;;;;;5061026;28;20529;-80
2022/08/02 05:07:29;;;;;;;1.70;1.60;;;24.70;48.30;;;;;;5067237;28;20806;-80
2022/08/02 05:09:55;;;;;;;1.80;1.70;;;24.70;48.30;;;;;;5062837;28;20432;-78
2022/08/02 05:12:24;;;;;;;1.80;1.70;;;24.70;48.20;;;;;;5063114;28;20257;-69
2022/08/02 05:14:50;;;;;;;2.00;1.90;;;24.70;48.30;;;;;;5065604;28;20177;-74
2022/08/02 05:17:16;;;;;;;1.80;1.70;;;24.70;48.20;;;;;;5062316;28;20491;-65
2022/08/02 05:19:42;;;;;;;1.60;1.50;;;24.70;48.20;;;;;;5060778;28;20211;-70
2022/08/02 05:22:08;;;;;;;1.80;1.70;;;24.70;48.20;;;;;;5066877;28;20216;-64
2022/08/02 05:24:33;;;;;;;1.93;1.83;;;24.70;48.20;;;;;;5064453;28;20192;-78
2022/08/02 05:26:59;;;;;;;2.67;2.03;;;24.70;48.20;;;;;;5064035;28;20218;-59
2022/08/02 05:29:25;;;;;;;1.87;1.77;;;24.70;48.10;;;;;;5071333;28;20191;-64
2022/08/02 05:31:51;;;;;;;1.90;1.80;;;24.70;48.20;;;;;;5064558;28;20442;-60
2022/08/02 05:34:17;;;;;;;1.70;1.60;;;24.70;48.20;;;;;;5062888;28;20200;-63
2022/08/02 05:36:42;;;;;;;1.90;1.80;;;24.70;48.10;;;;;;5063669;28;20224;-59
2022/08/02 05:39:08;;;;;;;2.00;1.90;;;24.70;48.10;;;;;;5066770;28;20180;-77
2022/08/02 05:41:34;;;;;;;2.30;2.20;;;24.70;48.10;;;;;;5065104;28;20173;-67
2022/08/02 05:44:02;;;;;;;1.80;1.70;;;24.70;48.10;;;;;;5072201;28;20191;-59
2022/08/02 05:46:27;;;;;;;1.97;1.87;;;24.70;48.20;;;;;;5069700;28;20528;-81
2022/08/02 05:48:53;;;;;;;2.03;1.93;;;24.70;48.10;;;;;;5074417;28;20466;-59
2022/08/02 05:51:24;;;;;;;2.20;2.10;;;24.70;48.10;;;;;;5071242;28;20272;-69
2022/08/02 05:54:16;;;;;;;2.10;1.90;;;24.70;48.00;;;;;;5072620;28;20183;-78
2022/08/02 05:56:53;;;;;;;2.00;1.87;;;24.70;48.10;;;;;;5073091;28;20966;-65
2022/08/02 05:59:34;;;;;;;1.83;1.73;;;24.70;48.20;;;;;;5075045;28;20436;-64
2022/08/02 06:02:15;;;;;;;1.90;1.80;;;24.70;48.10;;;;;;5071424;28;20826;-70
2022/08/02 06:05:03;;;;;;;1.70;1.60;;;24.70;48.10;;;;;;5068389;28;20426;-58
2022/08/02 06:07:30;;;;;;;2.00;1.90;;;24.70;48.10;;;;;;5066691;28;20436;-79
2022/08/02 06:09:58;;;;;;;2.10;2.00;;;24.70;48.10;;;;;;5070618;28;20424;-63
2022/08/02 06:12:27;;;;;;;1.90;1.80;;;24.70;48.10;;;;;;5070019;28;20946;-69
2022/08/02 06:14:55;;;;;;;1.90;1.80;;;24.70;48.10;;;;;;5070723;28;20457;-58
2022/08/02 06:17:21;;;;;;;2.03;1.93;;;24.70;48.10;;;;;;5072746;28;20479;-70
2022/08/02 06:19:47;;;;;;;1.93;1.83;;;24.70;48.10;;;;;;5073486;28;20429;-59
2022/08/02 06:22:16;;;;;;;1.90;1.80;;;24.70;48.10;;;;;;5072612;28;20485;-84
2022/08/02 06:24:43;;;;;;;1.83;1.73;;;24.70;48.10;;;;;;5072103;28;20835;-59
2022/08/02 06:27:12;;;;;;;1.73;1.63;;;24.70;48.00;;;;;;5067210;28;20468;-66
2022/08/02 06:29:41;;;;;;;1.83;1.73;;;24.70;48.00;;;;;;5064109;28;20426;-63
2022/08/02 06:32:07;;;;;;;1.87;1.73;;;24.70;48.00;;;;;;5075644;28;20475;-59
2022/08/02 06:34:39;;;;;;;1.93;1.83;;;24.70;48.00;;;;;;5069602;28;20527;-67
2022/08/02 06:37:13;;;;;;;1.90;1.80;;;24.70;48.00;;;;;;5068535;28;20456;-73
2022/08/02 06:39:45;;;;;;;2.00;1.90;;;24.70;48.00;;;;;;5071066;28;20425;-85
2022/08/02 06:42:13;;;;;;;2.17;2.07;;;24.70;48.10;;;;;;5067840;28;20429;-58
2022/08/02 06:44:39;;;;;;;1.90;1.80;;;24.70;48.00;;;;;;5064154;28;20495;-67
2022/08/02 06:47:05;;;;;;;1.70;1.60;;;24.70;48.00;;;;;;5074769;28;20430;-76
2022/08/02 06:49:31;;;;;;;2.10;2.00;;;24.70;48.10;;;;;;5073723;28;20219;-78
2022/08/02 06:51:57;;;;;;;1.83;1.73;;;24.70;48.00;;;;;;5072744;28;20978;-66
2022/08/02 06:54:23;;;;;;;1.87;1.77;;;24.70;48.00;;;;;;5068188;28;20182;-75
2022/08/02 06:56:49;;;;;;;1.90;1.67;;;24.70;48.00;;;;;;5065818;28;20465;-58
2022/08/02 06:59:15;;;;;;;2.40;2.30;;;24.70;48.00;;;;;;5070157;28;20185;-61
2022/08/02 07:01:42;;;;;;;1.90;1.80;;;24.70;48.10;;;;;;5073049;28;20326;-68
2022/08/02 07:04:08;;;;;;;2.03;1.93;;;24.70;48.00;;;;;;5071782;28;20458;-80
2022/08/02 07:06:34;;;;;;;1.83;1.73;;;24.70;48.00;;;;;;5066042;28;20425;-69
2022/08/02 07:09:00;;;;;;;2.20;2.10;;;24.70;48.00;;;;;;5067701;28;20422;-81
2022/08/02 07:11:26;;;;;;;2.43;2.33;;;24.70;48.00;;;;;;5068153;28;20477;-79
2022/08/02 07:13:51;;;;;;;2.00;1.90;;;24.70;48.10;;;;;;5071201;28;20544;-79
2022/08/02 07:16:17;;;;;;;2.20;2.10;;;24.70;48.00;;;;;;5065911;28;20293;-59
2022/08/02 07:18:42;;;;;;;2.47;2.30;;;24.70;48.80;;;;;;5071820;28;20705;-59
2022/08/02 07:21:08;;;;;;;2.03;1.93;;;24.70;48.00;;;;;;5063710;28;20260;-59
2022/08/02 07:23:33;;;;;;;1.93;1.83;;;24.70;48.00;;;;;;5068651;28;20204;-68
2022/08/02 07:25:59;;;;;;;2.23;2.03;;;24.70;48.00;;;;;;5063444;28;20193;-71
2022/08/02 07:28:25;;;;;;;2.30;2.10;;;24.70;48.00;;;;;;5064852;28;20534;-62
2022/08/02 07:30:51;;;;;;;2.10;1.90;;;24.70;48.00;;;;;;5069723;28;22187;-62
2022/08/02 07:33:17;;;;;;;2.10;2.00;;;24.70;47.90;;;;;;5069801;28;20188;-78
2022/08/02 07:35:42;;;;;;;2.30;2.20;;;24.70;48.00;;;;;;5068236;28;20468;-60
2022/08/02 07:38:08;;;;;;;2.13;1.80;;;24.70;48.00;;;;;;5066364;28;20182;-69
2022/08/02 07:40:34;;;;;;;2.30;2.20;;;24.70;48.00;;;;;;5063758;28;20177;-66
2022/08/02 07:42:59;;;;;;;2.50;2.30;;;24.70;48.00;;;;;;5065839;28;20189;-63
2022/08/02 07:45:26;;;;;;;1.90;1.80;;;24.70;48.00;;;;;;5063420;28;20276;-69
2022/08/02 07:47:51;;;;;;;2.10;1.90;;;24.70;48.00;;;;;;5066449;28;20219;-65
2022/08/02 07:50:19;;;;;;;3.23;2.50;;;24.70;48.00;;;;;;5069310;28;20513;-58
2022/08/02 07:52:46;;;;;;;2.03;1.93;;;24.70;48.00;;;;;;5071053;28;20185;-65
2022/08/02 07:55:13;;;;;;;2.20;2.10;;;24.70;48.00;;;;;;5066684;28;20514;-58
2022/08/02 07:57:39;;;;;;;2.33;2.23;;;24.70;47.90;;;;;;5062337;28;20430;-81
2022/08/02 08:00:08;;;;;;;2.20;2.10;;;24.70;48.00;;;;;;5066448;28;20550;-84
2022/08/02 08:02:33;;;;;;;2.40;2.20;;;24.70;48.00;;;;;;5064701;28;20502;-83
2022/08/02 08:04:59;;;;;;;1.80;1.70;;;24.70;48.00;;;;;;5074854;28;20469;-68
2022/08/02 08:07:25;;;;;;;2.10;2.00;;;24.70;48.10;;;;;;5067835;28;20192;-78
2022/08/02 08:09:51;;;;;;;2.33;2.20;;;24.70;48.00;;;;;;5065222;28;20202;-69
2022/08/02 08:12:16;;;;;;;2.43;2.33;;;24.70;48.00;;;;;;5061773;28;20184;-59
2022/08/02 08:14:43;;;;;;;2.20;2.10;;;24.70;48.00;;;;;;5064460;28;20475;-59
2022/08/02 08:17:08;;;;;;;2.50;2.40;;;24.70;48.00;;;;;;5071161;28;20218;-70
2022/08/02 08:19:34;;;;;;;1.90;1.80;;;24.70;48.00;;;;;;5074450;28;20437;-72
2022/08/02 08:22:00;;;;;;;2.30;2.20;;;24.70;48.00;;;;;;5064903;28;20223;-77
2022/08/02 08:24:29;;;;;;;2.30;2.20;;;24.70;48.00;;;;;;5060357;28;20467;-67
2022/08/02 08:26:56;;;;;;;2.27;2.17;;;24.70;48.00;;;;;;5066390;28;21325;-70
2022/08/02 08:29:22;;;;;;;2.13;2.03;;;24.70;48.00;;;;;;5067976;28;21240;-59
2022/08/02 08:31:48;;;;;;;2.10;2.00;;;24.70;48.00;;;;;;5063151;28;20459;-77
2022/08/02 08:34:14;;;;;;;2.10;2.00;;;24.70;48.00;;;;;;5069317;28;20448;-68
2022/08/02 08:36:40;;;;;;;2.37;2.27;;;24.70;48.00;;;;;;5075992;28;20469;-80
2022/08/02 08:39:05;;;;;;;2.43;2.33;;;24.70;48.00;;;;;;5069073;28;20667;-62
2022/08/02 08:41:31;;;;;;;2.60;2.50;;;24.70;48.00;;;;;;5068037;28;20623;-59
2022/08/02 08:43:58;;;;;;;2.30;2.20;;;24.70;48.00;;;;;;5072171;28;20184;-67
2022/08/02 08:46:30;;;;;;;2.27;2.17;;;24.70;48.00;;;;;;5064739;28;20242;-59
2022/08/02 08:49:06;;;;;;;2.50;2.40;;;24.70;47.90;;;;;;5075025;28;20498;-65
2022/08/02 08:51:37;;;;;;;2.63;2.47;;;24.70;48.00;;;;;;5070207;28;20787;-61
2022/08/02 08:54:06;;;;;;;2.40;2.30;;;24.70;48.00;;;;;;5072661;28;20464;-59
2022/08/02 08:56:34;;;;;;;2.07;1.97;;;24.70;48.00;;;;;;5065051;28;20475;-74
2022/08/02 08:59:02;;;;;;;2.10;2.00;;;24.70;48.00;;;;;;5064901;28;20433;-70
2022/08/02 09:01:28;;;;;;;2.43;2.33;;;24.70;48.10;;;;;;5067487;28;20459;-62
2022/08/02 09:03:54;;;;;;;2.23;2.13;;;24.70;48.00;;;;;;5067201;28;20516;-60
2022/08/02 09:06:19;;;;;;;2.47;2.37;;;24.70;48.00;;;;;;5063272;28;20444;-62
2022/08/02 09:08:45;;;;;;;2.10;2.00;;;24.70;47.90;;;;;;5068686;28;20189;-69
2022/08/02 09:11:21;;;;;;;3.17;2.97;;;24.70;48.00;;;;;;5063611;28;20302;-60
2022/08/02 09:13:54;;;;;;;2.20;2.10;;;24.70;48.00;;;;;;5065264;28;20209;-74
2022/08/02 09:16:42;;;;;;;2.60;2.40;;;24.70;48.00;;;;;;5066521;28;20471;-79
2022/08/02 09:19:17;;;;;;;2.30;2.20;;;24.70;48.00;;;;;;5065237;28;20445;-63
2022/08/02 09:21:43;;;;;;;2.60;2.50;;;24.70;48.00;;;;;;5066609;28;20472;-59
2022/08/02 09:24:16;;;;;;;2.50;2.40;;;24.70;48.10;;;;;;5066002;28;23801;-59
2022/08/02 09:26:42;;;;;;;2.67;2.57;;;24.70;48.00;;;;;;5061067;28;20192;-58
2022/08/02 09:29:07;;;;;;;2.57;2.47;;;24.70;48.00;;;;;;5065904;28;20442;-82
2022/08/02 09:31:33;;;;;;;2.83;2.73;;;24.70;48.00;;;;;;5066073;28;20177;-58
2022/08/02 09:34:00;;;;;;;2.43;2.33;;;24.70;48.00;;;;;;5062064;28;20181;-68
2022/08/02 09:36:35;;;;;;;2.60;2.50;;;24.70;48.00;;;;;;5070954;28;20563;-79
2022/08/02 09:39:07;;;;;;;2.33;2.23;;;24.70;48.00;;;;;;5062674;28;20508;-61
2022/08/02 09:41:37;;;;;;;2.60;2.50;;;24.70;48.00;;;;;;5060206;28;21008;-78
2022/08/02 09:44:05;;;;;;;2.67;2.47;;;24.70;48.00;;;;;;5063490;28;20472;-73
2022/08/02 09:46:36;;;;;;;2.83;2.73;;;24.70;48.00;;;;;;5066790;28;20484;-63
2022/08/02 09:49:04;;;;;;;2.80;2.70;;;24.70;48.00;;;;;;5061828;28;20426;-83
2022/08/02 09:51:39;;;;;;;2.40;2.30;;;24.70;48.00;;;;;;5070843;28;20784;-83
2022/08/02 09:54:08;;;;;;;2.40;2.30;;;24.70;48.00;;;;;;5065037;28;20432;-65
2022/08/02 09:56:52;;;;;;;2.33;2.23;;;24.70;48.00;;;;;;5063423;28;20459;-69
2022/08/02 09:59:19;;;;;;;2.63;2.53;;;24.70;48.00;;;;;;5062225;28;20480;-59
2022/08/02 10:01:47;;;;;;;2.70;2.60;;;24.70;48.00;;;;;;5062526;28;20474;-66
2022/08/02 10:04:13;;;;;;;2.73;2.63;;;24.70;48.00;;;;;;5066898;28;20434;-69
2022/08/02 10:06:41;;;;;;;2.40;2.30;;;24.70;48.00;;;;;;5071221;28;20501;-61
2022/08/02 10:09:09;;;;;;;2.60;2.50;;;24.70;48.10;;;;;;5065016;28;20507;-66
2022/08/02 10:11:35;;;;;;;2.63;2.53;;;24.70;48.10;;;;;;5059544;28;20434;-82
2022/08/02 10:14:04;;;;;;;2.90;2.80;;;24.70;48.00;;;;;;5061486;28;21491;-59
2022/08/02 10:16:31;;;;;;;2.83;2.63;;;24.70;48.00;;;;;;5066806;28;20212;-78
2022/08/02 10:18:59;;;;;;;2.50;2.40;;;24.70;48.00;;;;;;5063055;28;20429;-58
2022/08/02 10:21:50;;;;;;;2.27;2.17;;;24.70;48.00;;;;;;5066504;28;21043;-58
2022/08/02 10:24:20;;;;;;;2.53;2.43;;;24.70;48.00;;;;;;5067255;28;20437;-80
2022/08/02 10:26:46;;;;;;;2.77;2.67;;;24.70;48.00;;;;;;5064694;28;20494;-80
2022/08/02 10:29:19;;;;;;;2.30;2.20;;;24.70;48.00;;;;;;5067664;28;20429;-59
2022/08/02 10:32:06;;;;;;;2.60;2.50;;;24.70;48.10;;;;;;5067146;28;20428;-73
2022/08/02 10:34:47;;;;;;;2.83;2.73;;;24.70;48.00;;;;;;5067446;28;20448;-84
2022/08/02 10:37:14;;;;;;;2.47;2.37;;;24.70;48.00;;;;;;5070601;28;20465;-59
2022/08/02 10:39:44;;;;;;;2.73;2.63;;;24.70;48.00;;;;;;5067672;28;20421;-63
2022/08/02 10:42:11;;;;;;;2.70;2.60;;;24.70;48.00;;;;;;5067744;28;20429;-66
2022/08/02 10:44:37;;;;;;;2.80;2.70;;;24.70;48.00;;;;;;5063261;28;20436;-71
2022/08/02 10:47:23;;;;;;;2.93;2.80;;;24.70;48.00;;;;;;5070300;28;20442;-59
2022/08/02 10:49:52;;;;;;;2.50;2.40;;;24.70;48.00;;;;;;5064712;28;20448;-84
2022/08/02 10:52:19;;;;;;;2.47;2.37;;;24.70;48.00;;;;;;5070836;28;20508;-67
2022/08/02 10:54:52;;;;;;;2.47;2.37;;;24.70;48.00;;;;;;5071854;28;20476;-64
2022/08/02 10:57:26;;;;;;;2.40;2.30;;;24.70;48.00;;;;;;5063501;28;20504;-60
2022/08/02 10:59:59;;;;;;;2.80;2.70;;;24.70;48.00;;;;;;5067491;28;20718;-61
2022/08/02 11:02:45;;;;;;;2.77;2.63;;;24.70;48.00;;;;;;5067981;28;20449;-62
2022/08/02 11:05:11;;;;;;;3.10;2.90;;;24.70;48.00;;;;;;5069031;28;20421;-65
2022/08/02 11:07:42;;;;;;;2.90;2.80;;;24.70;48.10;;;;;;5067836;28;20440;-61
2022/08/02 11:10:28;;;;;;;2.80;2.60;;;24.70;48.00;;;;;;5072905;28;20211;-77
2022/08/02 11:13:03;;;;;;;2.43;2.33;;;24.70;48.10;;;;;;5064271;28;21203;-63
2022/08/02 11:15:29;;;;;;;2.60;2.50;;;24.70;48.00;;;;;;5067615;28;20563;-67
2022/08/02 11:17:57;;;;;;;2.50;2.40;;;24.70;48.10;;;;;;5065086;28;21208;-59
2022/08/02 11:20:25;;;;;;;2.93;2.83;;;24.70;48.00;;;;;;5069212;28;20640;-71
2022/08/02 11:22:52;;;;;;;2.83;2.50;;;24.70;48.10;;;;;;5069016;28;20867;-61
2022/08/02 11:25:21;;;;;;;3.00;2.80;;;24.70;48.00;;;;;;5074572;28;20924;-67
2022/08/02 11:27:47;;;;;;;2.63;2.53;;;24.70;48.10;;;;;;5066860;28;20470;-69
2022/08/02 11:30:14;;;;;;;3.10;2.90;;;24.70;48.00;;;;;;5078555;27;20853;-84
2022/08/02 11:32:40;;;;;;;2.70;2.60;;;24.70;48.00;;;;;;5066190;28;20434;-68
2022/08/02 11:35:05;;;;;;;2.23;2.13;;;24.70;48.10;;;;;;5068070;28;20853;-82
2022/08/02 11:37:37;;;;;;;2.43;2.33;;;24.70;48.00;;;;;;5068089;28;20223;-77
2022/08/02 11:40:05;;;;;;;2.40;2.30;;;24.70;48.00;;;;;;5074081;28;20189;-64
2022/08/02 11:42:33;;;;;;;2.63;2.53;;;24.70;48.10;;;;;;5063433;28;20437;-60
2022/08/02 11:44:58;;;;;;;2.80;2.70;;;24.70;48.10;;;;;;5065934;28;20444;-64
2022/08/02 11:47:24;;;;;;;2.40;2.30;;;24.70;48.00;;;;;;5063847;28;21037;-61
2022/08/02 11:49:50;;;;;;;2.47;2.37;;;24.70;48.10;;;;;;5063918;28;20174;-85
2022/08/02 11:52:15;;;;;;;2.70;2.60;;;24.70;48.10;;;;;;5064032;28;20184;-77
2022/08/02 11:54:42;;;;;;;2.63;2.53;;;24.70;48.10;;;;;;5070686;28;20694;-62
2022/08/02 11:57:16;;;;;;;3.03;2.93;;;24.70;48.10;;;;;;5064265;28;20197;-61
2022/08/02 11:59:44;;;;;;;2.73;2.63;;;24.70;48.00;;;;;;5062533;28;20515;-64
2022/08/02 12:02:11;;;;;;;2.30;2.20;;;24.70;48.10;;;;;;5065327;28;20564;-82
2022/08/02 12:04:37;;;;;;;2.67;2.57;;;24.70;48.00;;;;;;5065030;28;21046;-78
2022/08/02 12:07:04;;;;;;;2.93;2.83;;;24.70;48.10;;;;;;5070030;28;20429;-83
2022/08/02 12:09:32;;;;;;;2.60;2.50;;;24.70;48.10;;;;;;5069250;28;21050;-60
2022/08/02 12:11:59;;;;;;;2.50;2.40;;;24.70;48.10;;;;;;5071768;28;20437;-67
2022/08/02 12:14:26;;;;;;;2.67;2.57;;;24.70;48.10;;;;;;5062789;28;20434;-76
2022/08/02 12:19:37;;;;;;;2.87;2.70;;;24.70;48.10;;;;;;5061434;28;20478;-73
2022/08/02 12:22:11;;;;;;;2.60;2.50;;;24.70;48.20;;;;;;5062476;28;20461;-67
2022/08/02 12:24:37;;;;;;;2.60;2.50;;;24.70;48.10;;;;;;5064018;28;20426;-62
2022/08/02 12:27:03;;;;;;;2.93;2.83;;;24.70;48.10;;;;;;5070635;28;20449;-58
2022/08/02 12:29:34;;;;;;;2.57;2.47;;;24.70;48.10;;;;;;5061984;28;20429;-66
2022/08/02 12:32:00;;;;;;;2.50;2.40;;;24.70;48.10;;;;;;5061486;28;20687;-73
2022/08/02 12:34:28;;;;;;;2.60;2.50;;;24.70;48.10;;;;;;5068939;28;21018;-78
2022/08/02 12:37:08;;;;;;;2.33;2.23;;;24.70;48.10;;;;;;5061469;28;20474;-83
2022/08/02 12:39:42;;;;;;;2.30;2.20;;;24.70;48.10;;;;;;5063939;28;21512;-67
2022/08/02 12:42:10;;;;;;;3.10;2.90;;;24.70;48.10;;;;;;5072910;28;21259;-59
2022/08/02 12:44:53;;;;;;;2.57;2.47;;;24.70;48.20;;;;;;5062463;28;20785;-74
2022/08/02 12:47:22;;;;;;;2.43;2.33;;;24.70;48.10;;;;;;5065641;28;20570;-85
2022/08/02 12:50:17;;;;;;;2.70;2.60;;;24.70;48.10;;;;;;5061659;28;20421;-59
2022/08/02 12:52:43;;;;;;;3.23;3.03;;;24.70;48.10;;;;;;5065571;28;20433;-70
2022/08/02 12:55:21;;;;;;;2.50;2.40;;;24.70;48.10;;;;;;5067814;28;20446;-58
2022/08/02 12:58:00;;;;;;;3.00;2.90;;;24.70;48.10;;;;;;5070128;28;20188;-61
2022/08/02 13:00:31;;;;;;;2.67;2.57;;;24.70;48.10;;;;;;5062394;28;20437;-69
2022/08/02 13:02:58;;;;;;;2.27;2.17;;;24.70;48.10;;;;;;5063981;28;20425;-59